HBSGO LSZG-LSGG
Flight info
| Callsign | HBSGO |
|---|---|
| Flight time | N/A |
| Altitude | 4500 |
| Route | BIEL FRIBOURG MONTREUX THONON |
| Aircraft | DA40/L-SDBGRY/S |
Departure
| Time | 2026-05-07 17:08 |
|---|---|
| Airport | Grenchen Airfield (LSZG) |
Arrival
| Time | N/A |
|---|---|
| Airport | Geneva International Airport (LSGG) |
| Time | Latitude | Longitude | Altitude | Speed | Heading |
|---|---|---|---|---|---|
| 2026-05-07 16:56 | 47.18155 | 7.41212 | 1414 ft | 0 kts | 246° |
| 2026-05-07 17:00 | 47.18153 | 7.41206 | 1414 ft | 3 kts | 238° |
| 2026-05-07 17:00 | 47.18126 | 7.41214 | 1414 ft | 6 kts | 154° |
| 2026-05-07 17:01 | 47.18128 | 7.41261 | 1414 ft | 7 kts | 66° |
| 2026-05-07 17:01 | 47.18156 | 7.41302 | 1414 ft | 5 kts | 45° |
| 2026-05-07 17:01 | 47.18181 | 7.41373 | 1414 ft | 11 kts | 66° |
| 2026-05-07 17:01 | 47.18215 | 7.41487 | 1414 ft | 13 kts | 65° |
| 2026-05-07 17:02 | 47.18252 | 7.41599 | 1414 ft | 10 kts | 66° |
| 2026-05-07 17:02 | 47.18273 | 7.41687 | 1414 ft | 7 kts | 88° |
| 2026-05-07 17:02 | 47.18260 | 7.41776 | 1414 ft | 10 kts | 104° |
| 2026-05-07 17:02 | 47.18248 | 7.41837 | 1417 ft | 3 kts | 120° |
| 2026-05-07 17:03 | 47.18247 | 7.41838 | 1417 ft | 0 kts | 128° |
| 2026-05-07 17:06 | 47.18245 | 7.41854 | 1415 ft | 6 kts | 96° |
| 2026-05-07 17:06 | 47.18222 | 7.41897 | 1414 ft | 4 kts | 192° |
| 2026-05-07 17:06 | 47.18217 | 7.41891 | 1412 ft | 0 kts | 243° |
| 2026-05-07 17:07 | 47.18178 | 7.41768 | 1415 ft | 37 kts | 245° |
| 2026-05-07 17:07 | 47.18002 | 7.41209 | 1439 ft | 76 kts | 245° |
| 2026-05-07 17:07 | 47.17767 | 7.40543 | 1685 ft | 74 kts | 246° |
| 2026-05-07 17:07 | 47.17517 | 7.39850 | 1855 ft | 83 kts | 243° |
| 2026-05-07 17:08 | 47.17269 | 7.39066 | 2002 ft | 88 kts | 246° |
| 2026-05-07 17:08 | 47.17023 | 7.38215 | 2191 ft | 90 kts | 248° |
| 2026-05-07 17:08 | 47.16658 | 7.37463 | 2418 ft | 91 kts | 228° |
| 2026-05-07 17:08 | 47.16219 | 7.36784 | 2642 ft | 93 kts | 227° |
| 2026-05-07 17:09 | 47.15770 | 7.36090 | 2857 ft | 94 kts | 227° |
| 2026-05-07 17:09 | 47.15314 | 7.35393 | 3073 ft | 95 kts | 227° |
| 2026-05-07 17:09 | 47.14942 | 7.34588 | 3279 ft | 98 kts | 249° |
| 2026-05-07 17:09 | 47.14702 | 7.33549 | 3313 ft | 117 kts | 254° |
| 2026-05-07 17:10 | 47.14458 | 7.32341 | 3311 ft | 131 kts | 255° |
| 2026-05-07 17:10 | 47.14194 | 7.31023 | 3301 ft | 137 kts | 255° |
| 2026-05-07 17:10 | 47.13925 | 7.29668 | 3299 ft | 137 kts | 255° |
| 2026-05-07 17:10 | 47.13661 | 7.28353 | 3300 ft | 136 kts | 255° |
| 2026-05-07 17:11 | 47.13393 | 7.27032 | 3299 ft | 134 kts | 255° |
| 2026-05-07 17:11 | 47.13124 | 7.25721 | 3300 ft | 134 kts | 256° |
| 2026-05-07 17:11 | 47.12849 | 7.24419 | 3296 ft | 133 kts | 254° |
| 2026-05-07 17:11 | 47.12448 | 7.23199 | 3299 ft | 133 kts | 240° |
| 2026-05-07 17:12 | 47.11949 | 7.22053 | 3300 ft | 134 kts | 238° |
| 2026-05-07 17:12 | 47.11442 | 7.20914 | 3299 ft | 133 kts | 238° |
| 2026-05-07 17:12 | 47.10940 | 7.19778 | 3296 ft | 132 kts | 238° |
| 2026-05-07 17:12 | 47.10309 | 7.18824 | 3320 ft | 131 kts | 214° |
| 2026-05-07 17:13 | 47.09513 | 7.18177 | 3317 ft | 131 kts | 200° |
| 2026-05-07 17:13 | 47.08636 | 7.17817 | 3319 ft | 131 kts | 193° |
| 2026-05-07 17:13 | 47.07737 | 7.17597 | 3319 ft | 132 kts | 187° |
| 2026-05-07 17:13 | 47.06838 | 7.17419 | 3317 ft | 129 kts | 187° |
| 2026-05-07 17:14 | 47.05951 | 7.17290 | 3316 ft | 127 kts | 183° |
| 2026-05-07 17:14 | 47.05067 | 7.17198 | 3429 ft | 124 kts | 183° |
| 2026-05-07 17:14 | 47.04271 | 7.17114 | 3771 ft | 111 kts | 182° |
| 2026-05-07 17:14 | 47.03496 | 7.17021 | 3958 ft | 113 kts | 182° |
| 2026-05-07 17:15 | 47.02716 | 7.16927 | 4172 ft | 113 kts | 182° |
| 2026-05-07 17:15 | 47.01934 | 7.16828 | 4368 ft | 113 kts | 182° |
| 2026-05-07 17:15 | 47.01152 | 7.16728 | 4524 ft | 114 kts | 182° |
| 2026-05-07 17:15 | 47.00336 | 7.16623 | 4522 ft | 120 kts | 183° |
| 2026-05-07 17:16 | 46.99486 | 7.16514 | 4522 ft | 124 kts | 183° |
| 2026-05-07 17:16 | 46.98617 | 7.16406 | 4525 ft | 126 kts | 183° |
| 2026-05-07 17:16 | 46.97739 | 7.16299 | 4525 ft | 127 kts | 183° |
| 2026-05-07 17:16 | 46.96857 | 7.16191 | 4527 ft | 127 kts | 183° |
| 2026-05-07 17:17 | 46.95967 | 7.16082 | 4530 ft | 130 kts | 183° |
| 2026-05-07 17:17 | 46.95063 | 7.15985 | 4535 ft | 131 kts | 183° |
| 2026-05-07 17:17 | 46.94146 | 7.15901 | 4533 ft | 133 kts | 183° |
| 2026-05-07 17:17 | 46.93220 | 7.15820 | 4528 ft | 133 kts | 183° |
| 2026-05-07 17:18 | 46.92292 | 7.15738 | 4530 ft | 134 kts | 183° |
| 2026-05-07 17:18 | 46.91363 | 7.15654 | 4527 ft | 134 kts | 183° |
| 2026-05-07 17:18 | 46.90439 | 7.15571 | 4528 ft | 132 kts | 183° |
| 2026-05-07 17:18 | 46.89538 | 7.15495 | 4528 ft | 131 kts | 183° |
| 2026-05-07 17:19 | 46.88635 | 7.15414 | 4528 ft | 130 kts | 183° |
| 2026-05-07 17:19 | 46.87737 | 7.15328 | 4527 ft | 129 kts | 183° |
| 2026-05-07 17:19 | 46.86861 | 7.15084 | 4523 ft | 130 kts | 207° |
| 2026-05-07 17:19 | 46.86083 | 7.14409 | 4528 ft | 130 kts | 214° |
| 2026-05-07 17:20 | 46.85351 | 7.13636 | 4527 ft | 129 kts | 217° |
| 2026-05-07 17:20 | 46.84636 | 7.12845 | 4531 ft | 130 kts | 218° |
| 2026-05-07 17:20 | 46.83915 | 7.12047 | 4529 ft | 130 kts | 218° |
| 2026-05-07 17:20 | 46.83192 | 7.11248 | 4529 ft | 130 kts | 218° |
| 2026-05-07 17:21 | 46.82462 | 7.10440 | 4462 ft | 136 kts | 218° |
| 2026-05-07 17:21 | 46.81698 | 7.09594 | 4337 ft | 139 kts | 218° |
| 2026-05-07 17:21 | 46.80904 | 7.08871 | 4318 ft | 132 kts | 198° |
| 2026-05-07 17:21 | 46.80034 | 7.08533 | 4323 ft | 128 kts | 193° |
| 2026-05-07 17:22 | 46.79166 | 7.08232 | 4273 ft | 131 kts | 193° |
| 2026-05-07 17:22 | 46.78257 | 7.07925 | 4143 ft | 136 kts | 193° |
| 2026-05-07 17:22 | 46.77322 | 7.07613 | 4013 ft | 139 kts | 193° |
| 2026-05-07 17:22 | 46.76377 | 7.07298 | 3884 ft | 140 kts | 193° |
| 2026-05-07 17:23 | 46.75424 | 7.06992 | 3716 ft | 140 kts | 191° |
| 2026-05-07 17:23 | 46.74476 | 7.06970 | 3663 ft | 136 kts | 166° |
| 2026-05-07 17:23 | 46.73806 | 7.07809 | 3657 ft | 125 kts | 114° |
| 2026-05-07 17:23 | 46.73560 | 7.09015 | 3555 ft | 125 kts | 104° |
| 2026-05-07 17:24 | 46.73391 | 7.10126 | 3471 ft | 100 kts | 86° |
| 2026-05-07 17:24 | 46.73797 | 7.10772 | 3294 ft | 92 kts | 14° |
| 2026-05-07 17:24 | 46.74377 | 7.10942 | 3059 ft | 78 kts | 8° |
| 2026-05-07 17:24 | 46.74897 | 7.10975 | 2873 ft | 73 kts | 343° |
| 2026-05-07 17:25 | 46.75281 | 7.10513 | 2735 ft | 75 kts | 305° |
| 2026-05-07 17:25 | 46.75391 | 7.09767 | 2631 ft | 78 kts | 278° |
| 2026-05-07 17:25 | 46.75440 | 7.08976 | 2507 ft | 78 kts | 275° |
| 2026-05-07 17:25 | 46.75485 | 7.08208 | 2360 ft | 71 kts | 277° |
| 2026-05-07 17:26 | 46.75522 | 7.07640 | 2336 ft | 39 kts | 275° |
| 2026-05-07 17:26 | 46.75532 | 7.07401 | 2335 ft | 10 kts | 253° |
| 2026-05-07 17:26 | 46.75500 | 7.07383 | 2337 ft | 5 kts | 135° |
| 2026-05-07 17:26 | 46.75494 | 7.07440 | 2338 ft | 6 kts | 96° |
| 2026-05-07 17:27 | 46.75489 | 7.07523 | 2337 ft | 8 kts | 95° |
| 2026-05-07 17:27 | 46.75471 | 7.07563 | 2338 ft | 0 kts | 95° |
| 2026-05-07 17:27 | 46.75471 | 7.07583 | 2338 ft | 0 kts | 4° |